sensor_id;sensor_type;location;lat;lon;timestamp;P1;durP1;ratioP1;P2;durP2;ratioP2
70825;SDS011;58446;41.490;22.098;2023-05-07T00:02:22;10.10;;;7.03;;
70825;SDS011;58446;41.490;22.098;2023-05-07T00:04:47;10.68;;;6.75;;
70825;SDS011;58446;41.490;22.098;2023-05-07T00:07:14;8.90;;;6.13;;
70825;SDS011;58446;41.490;22.098;2023-05-07T00:09:40;11.00;;;6.83;;
70825;SDS011;58446;41.490;22.098;2023-05-07T00:12:06;9.10;;;6.85;;
70825;SDS011;58446;41.490;22.098;2023-05-07T00:14:32;10.32;;;6.90;;
70825;SDS011;58446;41.490;22.098;2023-05-07T00:16:58;10.30;;;6.70;;
70825;SDS011;58446;41.490;22.098;2023-05-07T00:19:24;8.65;;;6.25;;
70825;SDS011;58446;41.490;22.098;2023-05-07T00:21:50;10.48;;;6.80;;
70825;SDS011;58446;41.490;22.098;2023-05-07T00:24:15;10.00;;;7.13;;
70825;SDS011;58446;41.490;22.098;2023-05-07T00:26:41;12.40;;;6.70;;
70825;SDS011;58446;41.490;22.098;2023-05-07T00:29:07;9.17;;;6.13;;
70825;SDS011;58446;41.490;22.098;2023-05-07T00:31:32;10.43;;;6.60;;
70825;SDS011;58446;41.490;22.098;2023-05-07T00:33:58;9.23;;;6.50;;
70825;SDS011;58446;41.490;22.098;2023-05-07T00:36:24;10.82;;;6.75;;
70825;SDS011;58446;41.490;22.098;2023-05-07T00:38:51;10.10;;;6.33;;
70825;SDS011;58446;41.490;22.098;2023-05-07T00:41:16;12.32;;;6.75;;
70825;SDS011;58446;41.490;22.098;2023-05-07T00:43:42;14.73;;;7.67;;
70825;SDS011;58446;41.490;22.098;2023-05-07T00:46:08;10.70;;;7.00;;
70825;SDS011;58446;41.490;22.098;2023-05-07T00:48:35;10.63;;;7.55;;
70825;SDS011;58446;41.490;22.098;2023-05-07T00:51:00;10.80;;;7.40;;
70825;SDS011;58446;41.490;22.098;2023-05-07T00:53:26;9.77;;;6.72;;
70825;SDS011;58446;41.490;22.098;2023-05-07T00:55:52;9.55;;;6.50;;
70825;SDS011;58446;41.490;22.098;2023-05-07T00:58:18;10.70;;;7.60;;
70825;SDS011;58446;41.490;22.098;2023-05-07T01:00:45;10.80;;;7.30;;
70825;SDS011;58446;41.490;22.098;2023-05-07T01:03:11;12.27;;;7.20;;
70825;SDS011;58446;41.490;22.098;2023-05-07T01:05:37;11.03;;;7.20;;
70825;SDS011;58446;41.490;22.098;2023-05-07T01:08:03;11.95;;;6.90;;
70825;SDS011;58446;41.490;22.098;2023-05-07T01:10:30;10.70;;;7.15;;
70825;SDS011;58446;41.490;22.098;2023-05-07T01:12:56;13.10;;;6.63;;
70825;SDS011;58446;41.490;22.098;2023-05-07T01:15:23;12.90;;;7.40;;
70825;SDS011;58446;41.490;22.098;2023-05-07T01:17:49;9.73;;;6.88;;
70825;SDS011;58446;41.490;22.098;2023-05-07T01:20:15;10.10;;;6.83;;
70825;SDS011;58446;41.490;22.098;2023-05-07T01:22:41;12.30;;;6.97;;
70825;SDS011;58446;41.490;22.098;2023-05-07T01:25:08;10.10;;;7.10;;
70825;SDS011;58446;41.490;22.098;2023-05-07T01:27:34;9.40;;;6.77;;
70825;SDS011;58446;41.490;22.098;2023-05-07T01:30:01;10.45;;;7.20;;
70825;SDS011;58446;41.490;22.098;2023-05-07T01:32:52;9.52;;;6.60;;
70825;SDS011;58446;41.490;22.098;2023-05-07T01:35:22;11.80;;;7.53;;
70825;SDS011;58446;41.490;22.098;2023-05-07T01:37:54;12.53;;;7.30;;
70825;SDS011;58446;41.490;22.098;2023-05-07T01:40:20;10.82;;;7.38;;
70825;SDS011;58446;41.490;22.098;2023-05-07T01:42:46;10.73;;;7.10;;
70825;SDS011;58446;41.490;22.098;2023-05-07T01:45:13;9.35;;;6.63;;
70825;SDS011;58446;41.490;22.098;2023-05-07T01:47:39;11.18;;;7.22;;
70825;SDS011;58446;41.490;22.098;2023-05-07T01:50:05;10.97;;;6.90;;
70825;SDS011;58446;41.490;22.098;2023-05-07T01:52:33;10.52;;;6.97;;
70825;SDS011;58446;41.490;22.098;2023-05-07T01:55:00;10.82;;;7.32;;
70825;SDS011;58446;41.490;22.098;2023-05-07T01:57:25;10.43;;;7.20;;
70825;SDS011;58446;41.490;22.098;2023-05-07T01:59:51;11.70;;;6.53;;
70825;SDS011;58446;41.490;22.098;2023-05-07T02:02:17;10.70;;;7.07;;
70825;SDS011;58446;41.490;22.098;2023-05-07T02:04:42;11.87;;;7.47;;
70825;SDS011;58446;41.490;22.098;2023-05-07T02:07:08;11.60;;;7.65;;
70825;SDS011;58446;41.490;22.098;2023-05-07T02:09:34;10.03;;;7.43;;
70825;SDS011;58446;41.490;22.098;2023-05-07T02:12:00;9.80;;;7.43;;
70825;SDS011;58446;41.490;22.098;2023-05-07T02:14:26;9.77;;;7.23;;
70825;SDS011;58446;41.490;22.098;2023-05-07T02:16:52;12.23;;;7.10;;
70825;SDS011;58446;41.490;22.098;2023-05-07T02:19:18;11.27;;;7.72;;
70825;SDS011;58446;41.490;22.098;2023-05-07T02:21:46;13.50;;;7.77;;
70825;SDS011;58446;41.490;22.098;2023-05-07T02:24:12;10.70;;;7.68;;
70825;SDS011;58446;41.490;22.098;2023-05-07T02:26:39;13.95;;;8.18;;
70825;SDS011;58446;41.490;22.098;2023-05-07T02:29:05;12.30;;;7.60;;
70825;SDS011;58446;41.490;22.098;2023-05-07T02:31:31;11.00;;;6.97;;
70825;SDS011;58446;41.490;22.098;2023-05-07T02:33:59;13.30;;;7.50;;
70825;SDS011;58446;41.490;22.098;2023-05-07T02:36:25;14.85;;;7.82;;
70825;SDS011;58446;41.490;22.098;2023-05-07T02:38:51;11.32;;;7.53;;
70825;SDS011;58446;41.490;22.098;2023-05-07T02:41:17;12.10;;;7.50;;
70825;SDS011;58446;41.490;22.098;2023-05-07T02:43:43;10.77;;;7.20;;
70825;SDS011;58446;41.490;22.098;2023-05-07T02:46:09;11.90;;;6.70;;
70825;SDS011;58446;41.490;22.098;2023-05-07T02:48:35;10.48;;;7.07;;
70825;SDS011;58446;41.490;22.098;2023-05-07T02:51:01;12.55;;;7.25;;
70825;SDS011;58446;41.490;22.098;2023-05-07T02:53:27;11.18;;;7.22;;
70825;SDS011;58446;41.490;22.098;2023-05-07T02:55:58;10.47;;;7.27;;
70825;SDS011;58446;41.490;22.098;2023-05-07T02:58:25;12.00;;;6.82;;
70825;SDS011;58446;41.490;22.098;2023-05-07T03:00:51;11.02;;;7.50;;
70825;SDS011;58446;41.490;22.098;2023-05-07T03:03:16;10.57;;;6.90;;
70825;SDS011;58446;41.490;22.098;2023-05-07T03:05:42;11.43;;;7.00;;
70825;SDS011;58446;41.490;22.098;2023-05-07T03:08:08;10.07;;;7.47;;
70825;SDS011;58446;41.490;22.098;2023-05-07T03:10:35;10.65;;;7.82;;
70825;SDS011;58446;41.490;22.098;2023-05-07T03:13:01;11.97;;;8.20;;
70825;SDS011;58446;41.490;22.098;2023-05-07T03:15:27;12.05;;;7.85;;
70825;SDS011;58446;41.490;22.098;2023-05-07T03:17:53;11.75;;;7.65;;
70825;SDS011;58446;41.490;22.098;2023-05-07T03:20:19;17.10;;;7.70;;
70825;SDS011;58446;41.490;22.098;2023-05-07T03:22:44;11.88;;;8.05;;
70825;SDS011;58446;41.490;22.098;2023-05-07T03:25:10;12.20;;;7.33;;
70825;SDS011;58446;41.490;22.098;2023-05-07T03:27:36;11.90;;;7.47;;
70825;SDS011;58446;41.490;22.098;2023-05-07T03:30:03;11.95;;;7.32;;
70825;SDS011;58446;41.490;22.098;2023-05-07T03:32:29;10.50;;;7.30;;
70825;SDS011;58446;41.490;22.098;2023-05-07T03:34:55;10.60;;;7.80;;
70825;SDS011;58446;41.490;22.098;2023-05-07T03:37:21;10.45;;;7.50;;
70825;SDS011;58446;41.490;22.098;2023-05-07T03:39:46;10.37;;;7.60;;
70825;SDS011;58446;41.490;22.098;2023-05-07T03:42:12;11.20;;;7.50;;
70825;SDS011;58446;41.490;22.098;2023-05-07T03:44:38;12.38;;;7.03;;
70825;SDS011;58446;41.490;22.098;2023-05-07T03:47:04;9.83;;;6.97;;
70825;SDS011;58446;41.490;22.098;2023-05-07T03:49:29;11.05;;;7.38;;
70825;SDS011;58446;41.490;22.098;2023-05-07T03:51:55;9.23;;;6.77;;
70825;SDS011;58446;41.490;22.098;2023-05-07T03:54:21;10.77;;;7.38;;
70825;SDS011;58446;41.490;22.098;2023-05-07T03:56:47;12.10;;;7.40;;
70825;SDS011;58446;41.490;22.098;2023-05-07T03:59:13;10.40;;;6.90;;
70825;SDS011;58446;41.490;22.098;2023-05-07T04:01:39;10.45;;;7.03;;
70825;SDS011;58446;41.490;22.098;2023-05-07T04:04:05;12.90;;;7.03;;
70825;SDS011;58446;41.490;22.098;2023-05-07T04:06:30;11.83;;;7.37;;
70825;SDS011;58446;41.490;22.098;2023-05-07T04:08:56;11.60;;;7.05;;
70825;SDS011;58446;41.490;22.098;2023-05-07T04:11:22;11.15;;;7.05;;
70825;SDS011;58446;41.490;22.098;2023-05-07T04:13:48;10.63;;;7.43;;
70825;SDS011;58446;41.490;22.098;2023-05-07T04:16:14;10.50;;;7.85;;
70825;SDS011;58446;41.490;22.098;2023-05-07T04:18:40;11.20;;;7.40;;
70825;SDS011;58446;41.490;22.098;2023-05-07T04:21:05;10.50;;;8.00;;
70825;SDS011;58446;41.490;22.098;2023-05-07T04:23:38;12.60;;;8.48;;
70825;SDS011;58446;41.490;22.098;2023-05-07T04:26:04;11.30;;;8.07;;
70825;SDS011;58446;41.490;22.098;2023-05-07T04:28:29;11.07;;;7.83;;
70825;SDS011;58446;41.490;22.098;2023-05-07T04:30:55;13.03;;;7.73;;
70825;SDS011;58446;41.490;22.098;2023-05-07T04:33:21;12.40;;;7.90;;
70825;SDS011;58446;41.490;22.098;2023-05-07T04:35:46;12.27;;;8.33;;
70825;SDS011;58446;41.490;22.098;2023-05-07T04:38:12;11.57;;;7.40;;
70825;SDS011;58446;41.490;22.098;2023-05-07T04:40:38;10.93;;;7.77;;
70825;SDS011;58446;41.490;22.098;2023-05-07T04:43:04;10.45;;;8.07;;
70825;SDS011;58446;41.490;22.098;2023-05-07T04:45:29;10.63;;;7.75;;
70825;SDS011;58446;41.490;22.098;2023-05-07T04:47:55;10.73;;;7.73;;
70825;SDS011;58446;41.490;22.098;2023-05-07T04:50:21;10.90;;;7.73;;
70825;SDS011;58446;41.490;22.098;2023-05-07T04:52:50;13.23;;;7.20;;
70825;SDS011;58446;41.490;22.098;2023-05-07T04:55:16;11.68;;;7.95;;
70825;SDS011;58446;41.490;22.098;2023-05-07T04:57:41;11.77;;;7.70;;
70825;SDS011;58446;41.490;22.098;2023-05-07T05:00:07;11.40;;;7.50;;
70825;SDS011;58446;41.490;22.098;2023-05-07T05:02:34;12.55;;;7.82;;
70825;SDS011;58446;41.490;22.098;2023-05-07T05:05:00;11.07;;;7.32;;
70825;SDS011;58446;41.490;22.098;2023-05-07T05:07:29;10.33;;;8.03;;
70825;SDS011;58446;41.490;22.098;2023-05-07T05:09:54;12.25;;;7.63;;
70825;SDS011;58446;41.490;22.098;2023-05-07T05:12:20;12.90;;;8.32;;
70825;SDS011;58446;41.490;22.098;2023-05-07T05:14:46;10.60;;;7.53;;
70825;SDS011;58446;41.490;22.098;2023-05-07T05:17:12;10.95;;;7.82;;
70825;SDS011;58446;41.490;22.098;2023-05-07T05:19:37;11.27;;;7.67;;
70825;SDS011;58446;41.490;22.098;2023-05-07T05:22:03;10.80;;;7.40;;
70825;SDS011;58446;41.490;22.098;2023-05-07T05:24:30;10.73;;;7.83;;
70825;SDS011;58446;41.490;22.098;2023-05-07T05:26:56;10.40;;;7.65;;
70825;SDS011;58446;41.490;22.098;2023-05-07T05:29:21;11.35;;;7.78;;
70825;SDS011;58446;41.490;22.098;2023-05-07T05:31:47;10.80;;;7.77;;
70825;SDS011;58446;41.490;22.098;2023-05-07T05:34:13;11.55;;;8.05;;
70825;SDS011;58446;41.490;22.098;2023-05-07T05:36:39;10.63;;;7.70;;
70825;SDS011;58446;41.490;22.098;2023-05-07T05:39:04;11.45;;;8.13;;
70825;SDS011;58446;41.490;22.098;2023-05-07T05:41:31;12.00;;;7.35;;
70825;SDS011;58446;41.490;22.098;2023-05-07T05:43:56;12.30;;;7.80;;
70825;SDS011;58446;41.490;22.098;2023-05-07T05:46:22;11.15;;;7.35;;
70825;SDS011;58446;41.490;22.098;2023-05-07T05:48:48;10.50;;;7.37;;
70825;SDS011;58446;41.490;22.098;2023-05-07T05:51:13;11.88;;;6.95;;
70825;SDS011;58446;41.490;22.098;2023-05-07T05:53:39;9.97;;;7.50;;
70825;SDS011;58446;41.490;22.098;2023-05-07T05:56:05;9.68;;;6.53;;
70825;SDS011;58446;41.490;22.098;2023-05-07T05:58:31;10.48;;;6.65;;
70825;SDS011;58446;41.490;22.098;2023-05-07T06:00:57;10.67;;;6.73;;
70825;SDS011;58446;41.490;22.098;2023-05-07T06:03:23;9.35;;;6.50;;
70825;SDS011;58446;41.490;22.098;2023-05-07T06:05:49;10.30;;;6.87;;
70825;SDS011;58446;41.490;22.098;2023-05-07T06:08:15;10.05;;;6.72;;
70825;SDS011;58446;41.490;22.098;2023-05-07T06:10:41;9.70;;;6.05;;
70825;SDS011;58446;41.490;22.098;2023-05-07T06:13:07;9.50;;;6.60;;
70825;SDS011;58446;41.490;22.098;2023-05-07T06:15:32;9.05;;;6.55;;
70825;SDS011;58446;41.490;22.098;2023-05-07T06:17:58;10.87;;;6.77;;
70825;SDS011;58446;41.490;22.098;2023-05-07T06:20:24;11.37;;;5.93;;
70825;SDS011;58446;41.490;22.098;2023-05-07T06:22:49;10.33;;;6.37;;
70825;SDS011;58446;41.490;22.098;2023-05-07T06:25:15;9.45;;;6.25;;
70825;SDS011;58446;41.490;22.098;2023-05-07T06:27:41;9.57;;;6.30;;
70825;SDS011;58446;41.490;22.098;2023-05-07T06:30:07;11.50;;;5.97;;
70825;SDS011;58446;41.490;22.098;2023-05-07T06:32:33;9.88;;;6.90;;
70825;SDS011;58446;41.490;22.098;2023-05-07T06:34:59;10.97;;;5.93;;
70825;SDS011;58446;41.490;22.098;2023-05-07T06:37:25;10.18;;;6.65;;
70825;SDS011;58446;41.490;22.098;2023-05-07T06:39:50;8.57;;;5.73;;
70825;SDS011;58446;41.490;22.098;2023-05-07T06:42:16;8.60;;;6.03;;
70825;SDS011;58446;41.490;22.098;2023-05-07T06:44:42;10.05;;;6.70;;
70825;SDS011;58446;41.490;22.098;2023-05-07T06:47:08;33.17;;;14.37;;
70825;SDS011;58446;41.490;22.098;2023-05-07T06:49:33;11.73;;;7.43;;
70825;SDS011;58446;41.490;22.098;2023-05-07T06:51:59;21.80;;;10.10;;
70825;SDS011;58446;41.490;22.098;2023-05-07T06:54:25;16.98;;;8.40;;
70825;SDS011;58446;41.490;22.098;2023-05-07T06:56:50;28.63;;;8.07;;
70825;SDS011;58446;41.490;22.098;2023-05-07T06:59:16;22.15;;;9.80;;
70825;SDS011;58446;41.490;22.098;2023-05-07T07:01:42;14.40;;;7.97;;
70825;SDS011;58446;41.490;22.098;2023-05-07T07:04:07;9.98;;;5.72;;
70825;SDS011;58446;41.490;22.098;2023-05-07T07:06:33;20.67;;;6.53;;
70825;SDS011;58446;41.490;22.098;2023-05-07T07:08:59;12.00;;;6.95;;
70825;SDS011;58446;41.490;22.098;2023-05-07T07:11:25;11.23;;;6.67;;
70825;SDS011;58446;41.490;22.098;2023-05-07T07:13:51;11.02;;;6.28;;
70825;SDS011;58446;41.490;22.098;2023-05-07T07:16:19;8.20;;;6.00;;
70825;SDS011;58446;41.490;22.098;2023-05-07T07:18:46;7.93;;;5.00;;
70825;SDS011;58446;41.490;22.098;2023-05-07T07:21:11;8.23;;;5.15;;
70825;SDS011;58446;41.490;22.098;2023-05-07T07:23:37;10.00;;;5.43;;
70825;SDS011;58446;41.490;22.098;2023-05-07T07:26:03;10.73;;;5.95;;
70825;SDS011;58446;41.490;22.098;2023-05-07T07:28:31;10.52;;;5.63;;
70825;SDS011;58446;41.490;22.098;2023-05-07T07:30:56;8.93;;;6.03;;
70825;SDS011;58446;41.490;22.098;2023-05-07T07:33:22;9.57;;;5.57;;
70825;SDS011;58446;41.490;22.098;2023-05-07T07:35:48;12.50;;;6.60;;
70825;SDS011;58446;41.490;22.098;2023-05-07T07:38:13;9.77;;;5.82;;
70825;SDS011;58446;41.490;22.098;2023-05-07T07:40:39;7.93;;;4.80;;
70825;SDS011;58446;41.490;22.098;2023-05-07T07:43:05;9.90;;;5.47;;
70825;SDS011;58446;41.490;22.098;2023-05-07T07:45:31;9.10;;;6.57;;
70825;SDS011;58446;41.490;22.098;2023-05-07T07:47:57;9.73;;;5.30;;
70825;SDS011;58446;41.490;22.098;2023-05-07T07:50:22;8.40;;;5.78;;
70825;SDS011;58446;41.490;22.098;2023-05-07T07:52:48;8.30;;;4.97;;
70825;SDS011;58446;41.490;22.098;2023-05-07T07:55:14;8.60;;;5.55;;
70825;SDS011;58446;41.490;22.098;2023-05-07T07:57:43;10.07;;;5.45;;
70825;SDS011;58446;41.490;22.098;2023-05-07T08:00:08;9.83;;;5.57;;
70825;SDS011;58446;41.490;22.098;2023-05-07T08:02:35;9.85;;;4.80;;
70825;SDS011;58446;41.490;22.098;2023-05-07T08:05:00;7.55;;;4.68;;
70825;SDS011;58446;41.490;22.098;2023-05-07T08:07:26;10.63;;;5.37;;
70825;SDS011;58446;41.490;22.098;2023-05-07T08:09:52;9.13;;;5.60;;
70825;SDS011;58446;41.490;22.098;2023-05-07T08:12:18;9.60;;;5.20;;
70825;SDS011;58446;41.490;22.098;2023-05-07T08:14:43;8.45;;;5.60;;
70825;SDS011;58446;41.490;22.098;2023-05-07T08:17:09;9.40;;;5.20;;
70825;SDS011;58446;41.490;22.098;2023-05-07T08:19:35;9.20;;;5.82;;
70825;SDS011;58446;41.490;22.098;2023-05-07T08:22:02;11.88;;;5.05;;
70825;SDS011;58446;41.490;22.098;2023-05-07T08:24:30;13.43;;;9.98;;
70825;SDS011;58446;41.490;22.098;2023-05-07T08:26:56;8.87;;;6.23;;
70825;SDS011;58446;41.490;22.098;2023-05-07T08:29:22;9.57;;;5.93;;
70825;SDS011;58446;41.490;22.098;2023-05-07T08:31:47;7.97;;;5.10;;
70825;SDS011;58446;41.490;22.098;2023-05-07T08:34:13;8.43;;;5.25;;
70825;SDS011;58446;41.490;22.098;2023-05-07T08:36:38;8.13;;;4.77;;
70825;SDS011;58446;41.490;22.098;2023-05-07T08:39:06;7.93;;;4.88;;
70825;SDS011;58446;41.490;22.098;2023-05-07T08:41:32;10.40;;;5.83;;
70825;SDS011;58446;41.490;22.098;2023-05-07T08:43:58;8.05;;;5.18;;
70825;SDS011;58446;41.490;22.098;2023-05-07T08:46:26;8.82;;;6.20;;
70825;SDS011;58446;41.490;22.098;2023-05-07T08:48:57;8.73;;;5.30;;
70825;SDS011;58446;41.490;22.098;2023-05-07T08:51:22;10.97;;;5.57;;
70825;SDS011;58446;41.490;22.098;2023-05-07T08:53:49;11.95;;;5.50;;
70825;SDS011;58446;41.490;22.098;2023-05-07T08:56:15;8.95;;;5.10;;
70825;SDS011;58446;41.490;22.098;2023-05-07T08:58:44;8.00;;;5.55;;
70825;SDS011;58446;41.490;22.098;2023-05-07T09:01:13;8.63;;;5.53;;
70825;SDS011;58446;41.490;22.098;2023-05-07T09:03:39;8.23;;;5.28;;
70825;SDS011;58446;41.490;22.098;2023-05-07T09:06:06;8.73;;;4.90;;
70825;SDS011;58446;41.490;22.098;2023-05-07T09:08:34;8.13;;;4.75;;
70825;SDS011;58446;41.490;22.098;2023-05-07T09:11:01;7.47;;;4.53;;
70825;SDS011;58446;41.490;22.098;2023-05-07T09:13:27;10.73;;;5.88;;
70825;SDS011;58446;41.490;22.098;2023-05-07T09:15:53;9.98;;;5.35;;
70825;SDS011;58446;41.490;22.098;2023-05-07T09:18:19;9.85;;;5.30;;
70825;SDS011;58446;41.490;22.098;2023-05-07T09:20:45;8.60;;;5.37;;
70825;SDS011;58446;41.490;22.098;2023-05-07T09:23:11;7.32;;;5.28;;
70825;SDS011;58446;41.490;22.098;2023-05-07T09:25:37;8.00;;;4.82;;
70825;SDS011;58446;41.490;22.098;2023-05-07T09:28:03;7.20;;;4.40;;
70825;SDS011;58446;41.490;22.098;2023-05-07T09:30:32;8.20;;;4.47;;
70825;SDS011;58446;41.490;22.098;2023-05-07T09:32:59;8.98;;;5.38;;
70825;SDS011;58446;41.490;22.098;2023-05-07T09:35:26;7.85;;;5.18;;
70825;SDS011;58446;41.490;22.098;2023-05-07T09:37:53;7.30;;;4.77;;
70825;SDS011;58446;41.490;22.098;2023-05-07T09:40:20;9.30;;;5.05;;
70825;SDS011;58446;41.490;22.098;2023-05-07T09:42:53;7.72;;;4.05;;
70825;SDS011;58446;41.490;22.098;2023-05-07T09:45:26;7.05;;;4.60;;
70825;SDS011;58446;41.490;22.098;2023-05-07T09:47:53;8.77;;;4.72;;
70825;SDS011;58446;41.490;22.098;2023-05-07T09:50:22;7.77;;;4.20;;
70825;SDS011;58446;41.490;22.098;2023-05-07T09:52:53;8.15;;;4.85;;
70825;SDS011;58446;41.490;22.098;2023-05-07T09:55:20;8.07;;;4.30;;
70825;SDS011;58446;41.490;22.098;2023-05-07T09:57:48;8.60;;;4.63;;
70825;SDS011;58446;41.490;22.098;2023-05-07T10:00:17;7.95;;;5.05;;
70825;SDS011;58446;41.490;22.098;2023-05-07T10:02:45;7.27;;;4.67;;
70825;SDS011;58446;41.490;22.098;2023-05-07T10:05:20;8.85;;;4.68;;
70825;SDS011;58446;41.490;22.098;2023-05-07T10:07:47;10.35;;;5.20;;
70825;SDS011;58446;41.490;22.098;2023-05-07T10:10:13;9.73;;;5.88;;
70825;SDS011;58446;41.490;22.098;2023-05-07T10:12:43;9.30;;;5.50;;
70825;SDS011;58446;41.490;22.098;2023-05-07T10:15:09;7.50;;;4.20;;
70825;SDS011;58446;41.490;22.098;2023-05-07T10:17:37;6.30;;;3.78;;
70825;SDS011;58446;41.490;22.098;2023-05-07T10:20:05;10.60;;;3.90;;
70825;SDS011;58446;41.490;22.098;2023-05-07T10:22:41;7.85;;;3.75;;
70825;SDS011;58446;41.490;22.098;2023-05-07T10:25:14;7.18;;;4.50;;
70825;SDS011;58446;41.490;22.098;2023-05-07T10:27:46;8.13;;;4.70;;
70825;SDS011;58446;41.490;22.098;2023-05-07T10:30:17;8.98;;;5.63;;
70825;SDS011;58446;41.490;22.098;2023-05-07T10:32:51;7.75;;;4.78;;
70825;SDS011;58446;41.490;22.098;2023-05-07T10:35:21;6.50;;;3.55;;
70825;SDS011;58446;41.490;22.098;2023-05-07T10:37:50;8.35;;;4.20;;
70825;SDS011;58446;41.490;22.098;2023-05-07T10:40:17;7.70;;;4.27;;
70825;SDS011;58446;41.490;22.098;2023-05-07T10:42:58;7.78;;;4.70;;
70825;SDS011;58446;41.490;22.098;2023-05-07T10:45:26;7.28;;;4.10;;
70825;SDS011;58446;41.490;22.098;2023-05-07T10:50:38;6.93;;;4.07;;
70825;SDS011;58446;41.490;22.098;2023-05-07T10:55:47;7.38;;;4.15;;
70825;SDS011;58446;41.490;22.098;2023-05-07T11:00:58;7.82;;;4.35;;
70825;SDS011;58446;41.490;22.098;2023-05-07T11:03:25;7.75;;;4.32;;
70825;SDS011;58446;41.490;22.098;2023-05-07T11:06:11;7.10;;;4.30;;
70825;SDS011;58446;41.490;22.098;2023-05-07T11:09:11;10.43;;;4.30;;
70825;SDS011;58446;41.490;22.098;2023-05-07T11:11:45;6.82;;;4.28;;
70825;SDS011;58446;41.490;22.098;2023-05-07T11:17:08;7.60;;;4.18;;
70825;SDS011;58446;41.490;22.098;2023-05-07T11:25:00;7.25;;;4.45;;
70825;SDS011;58446;41.490;22.098;2023-05-07T11:27:26;6.40;;;3.92;;
70825;SDS011;58446;41.490;22.098;2023-05-07T11:29:52;7.75;;;4.30;;
70825;SDS011;58446;41.490;22.098;2023-05-07T11:32:30;6.27;;;4.00;;
70825;SDS011;58446;41.490;22.098;2023-05-07T11:34:57;9.00;;;4.10;;
70825;SDS011;58446;41.490;22.098;2023-05-07T11:37:25;7.03;;;4.18;;
70825;SDS011;58446;41.490;22.098;2023-05-07T11:40:06;7.72;;;4.60;;
70825;SDS011;58446;41.490;22.098;2023-05-07T11:42:39;7.85;;;4.10;;
70825;SDS011;58446;41.490;22.098;2023-05-07T11:45:07;7.13;;;4.33;;
70825;SDS011;58446;41.490;22.098;2023-05-07T11:47:34;6.72;;;3.30;;
70825;SDS011;58446;41.490;22.098;2023-05-07T11:50:04;6.47;;;3.47;;
70825;SDS011;58446;41.490;22.098;2023-05-07T11:52:31;7.35;;;3.70;;
70825;SDS011;58446;41.490;22.098;2023-05-07T11:54:57;5.85;;;3.30;;
70825;SDS011;58446;41.490;22.098;2023-05-07T11:57:25;6.70;;;3.50;;
70825;SDS011;58446;41.490;22.098;2023-05-07T11:59:55;8.32;;;3.50;;
70825;SDS011;58446;41.490;22.098;2023-05-07T12:02:22;6.32;;;3.67;;
70825;SDS011;58446;41.490;22.098;2023-05-07T12:04:50;6.47;;;3.70;;
70825;SDS011;58446;41.490;22.098;2023-05-07T12:07:16;7.85;;;3.88;;
70825;SDS011;58446;41.490;22.098;2023-05-07T12:09:43;6.37;;;3.40;;
70825;SDS011;58446;41.490;22.098;2023-05-07T12:12:10;7.90;;;3.78;;
70825;SDS011;58446;41.490;22.098;2023-05-07T12:14:37;6.10;;;3.70;;
70825;SDS011;58446;41.490;22.098;2023-05-07T12:17:07;7.88;;;4.15;;
70825;SDS011;58446;41.490;22.098;2023-05-07T12:19:34;8.68;;;4.35;;
70825;SDS011;58446;41.490;22.098;2023-05-07T12:22:01;6.63;;;3.67;;
70825;SDS011;58446;41.490;22.098;2023-05-07T12:24:28;6.80;;;4.18;;
70825;SDS011;58446;41.490;22.098;2023-05-07T12:26:53;6.20;;;4.05;;
70825;SDS011;58446;41.490;22.098;2023-05-07T12:29:22;6.75;;;3.90;;
70825;SDS011;58446;41.490;22.098;2023-05-07T12:31:49;6.83;;;3.60;;
70825;SDS011;58446;41.490;22.098;2023-05-07T12:34:15;6.80;;;4.18;;
70825;SDS011;58446;41.490;22.098;2023-05-07T12:36:41;7.18;;;4.10;;
70825;SDS011;58446;41.490;22.098;2023-05-07T12:39:07;8.25;;;3.80;;
70825;SDS011;58446;41.490;22.098;2023-05-07T12:44:23;7.47;;;3.47;;
70825;SDS011;58446;41.490;22.098;2023-05-07T12:46:51;7.70;;;4.25;;
70825;SDS011;58446;41.490;22.098;2023-05-07T12:49:17;8.45;;;3.90;;
70825;SDS011;58446;41.490;22.098;2023-05-07T12:51:49;6.80;;;3.63;;
70825;SDS011;58446;41.490;22.098;2023-05-07T12:57:12;6.00;;;3.38;;
70825;SDS011;58446;41.490;22.098;2023-05-07T12:59:39;6.18;;;3.50;;
70825;SDS011;58446;41.490;22.098;2023-05-07T13:02:06;6.30;;;3.70;;
70825;SDS011;58446;41.490;22.098;2023-05-07T13:04:32;6.85;;;3.67;;
70825;SDS011;58446;41.490;22.098;2023-05-07T13:06:59;6.85;;;3.53;;
70825;SDS011;58446;41.490;22.098;2023-05-07T13:09:25;6.25;;;3.33;;
70825;SDS011;58446;41.490;22.098;2023-05-07T13:11:51;7.07;;;3.60;;
70825;SDS011;58446;41.490;22.098;2023-05-07T13:14:17;6.35;;;3.15;;
70825;SDS011;58446;41.490;22.098;2023-05-07T13:16:45;5.65;;;3.00;;
70825;SDS011;58446;41.490;22.098;2023-05-07T13:19:10;5.70;;;3.30;;
70825;SDS011;58446;41.490;22.098;2023-05-07T13:21:36;6.18;;;3.50;;
70825;SDS011;58446;41.490;22.098;2023-05-07T13:24:02;7.67;;;3.70;;
70825;SDS011;58446;41.490;22.098;2023-05-07T13:26:29;7.07;;;2.90;;
70825;SDS011;58446;41.490;22.098;2023-05-07T13:28:56;6.95;;;3.00;;
70825;SDS011;58446;41.490;22.098;2023-05-07T13:31:22;7.18;;;3.42;;
70825;SDS011;58446;41.490;22.098;2023-05-07T13:33:48;7.23;;;3.87;;
70825;SDS011;58446;41.490;22.098;2023-05-07T13:36:14;6.05;;;3.40;;
70825;SDS011;58446;41.490;22.098;2023-05-07T13:38:41;7.05;;;3.72;;
70825;SDS011;58446;41.490;22.098;2023-05-07T13:41:06;6.90;;;3.80;;
70825;SDS011;58446;41.490;22.098;2023-05-07T13:43:32;6.70;;;3.15;;
70825;SDS011;58446;41.490;22.098;2023-05-07T13:45:59;8.13;;;3.50;;
70825;SDS011;58446;41.490;22.098;2023-05-07T13:48:26;6.37;;;2.73;;
70825;SDS011;58446;41.490;22.098;2023-05-07T13:50:52;6.57;;;3.50;;
70825;SDS011;58446;41.490;22.098;2023-05-07T13:53:17;6.82;;;3.22;;
70825;SDS011;58446;41.490;22.098;2023-05-07T13:55:44;6.40;;;3.63;;
70825;SDS011;58446;41.490;22.098;2023-05-07T13:58:10;8.05;;;3.72;;
70825;SDS011;58446;41.490;22.098;2023-05-07T14:00:36;6.90;;;3.78;;
70825;SDS011;58446;41.490;22.098;2023-05-07T14:03:02;6.30;;;3.55;;
70825;SDS011;58446;41.490;22.098;2023-05-07T14:05:29;6.57;;;3.73;;
70825;SDS011;58446;41.490;22.098;2023-05-07T14:07:56;7.07;;;3.42;;
70825;SDS011;58446;41.490;22.098;2023-05-07T14:10:23;6.53;;;3.67;;
70825;SDS011;58446;41.490;22.098;2023-05-07T14:12:49;7.53;;;3.60;;
70825;SDS011;58446;41.490;22.098;2023-05-07T14:15:15;6.37;;;2.97;;
70825;SDS011;58446;41.490;22.098;2023-05-07T14:17:41;6.00;;;3.25;;
70825;SDS011;58446;41.490;22.098;2023-05-07T14:20:07;5.97;;;3.30;;
70825;SDS011;58446;41.490;22.098;2023-05-07T14:22:34;7.07;;;3.50;;
70825;SDS011;58446;41.490;22.098;2023-05-07T14:25:00;7.57;;;4.10;;
70825;SDS011;58446;41.490;22.098;2023-05-07T14:27:25;6.57;;;3.80;;
70825;SDS011;58446;41.490;22.098;2023-05-07T14:29:51;7.37;;;3.53;;
70825;SDS011;58446;41.490;22.098;2023-05-07T14:32:17;6.43;;;3.75;;
70825;SDS011;58446;41.490;22.098;2023-05-07T14:34:43;6.47;;;4.05;;
70825;SDS011;58446;41.490;22.098;2023-05-07T14:37:10;7.00;;;3.57;;
70825;SDS011;58446;41.490;22.098;2023-05-07T14:39:36;6.20;;;3.47;;
70825;SDS011;58446;41.490;22.098;2023-05-07T14:42:02;5.70;;;3.10;;
70825;SDS011;58446;41.490;22.098;2023-05-07T14:44:28;6.60;;;4.00;;
70825;SDS011;58446;41.490;22.098;2023-05-07T14:46:54;6.97;;;3.85;;
70825;SDS011;58446;41.490;22.098;2023-05-07T14:49:20;7.05;;;4.03;;